Startpagina
METAR-TAF:

METAR-TAF

Vliegvelden :

Worland Municipal Airport

Worland, Wyoming, Verenigde Staten

breedte: 43-57-57N, lengte: 107-57-03W, hoogte: 1288 m

Actueel weer

Dit bericht is 1 uur en het 10 minuten geleden gemaakt, om 15:53 UTC
Wind 14 kt uit het noorden
Temperatuur 12°C
Vochtigheid 32%
Druk 1024 hPa
Zicht: 16.1 km
Onbewolkt

METAR: KWRL 181553Z AUTO 35014KT 10SM CLR 12/M04 A3025 RMK AO2 SLP243 T01221039

Tijdstip: 11:03 (17:03 UTC)

Verwachting

Dit bericht is 5 uur en het 34 minuten geleden gemaakt, om 11:29 UTC
Verwachting geldig van 18 om 12 UTC tot 19 om 12 UTC
Wind 5 kt uit variabele richting
Zicht: 10 km
Onbewolkt
Van 18 om 2300 UTC
Wind 6 kt uit het zuidzuidoosten
Zicht: 10 km
Onbewolkt

TAF: KWRL 181129Z 1812/1912 VRB05KT P6SM SKC FM182300 15006KT P6SM SKC

Waarnemingen en weersverwachtingen van meer dan 4000 vliegvelden (METAR en TAF).

De beschikbare stations zijn de gele en rode punten op de kaart.

Ga met uw muis naar het station om de naam te zien.

Klik dan om waarnemingen en weersverwachtingen te zien.

kaart wijzigen: klik op de groene knoppen met een zwart kruis om in te zoomen, op de groene knop met een streepje om uit te zoomen of op de groene pijlen voor aangrenzende kaarten.


METAR-TAF: